sensor_id;sensor_type;location;lat;lon;timestamp;P1;durP1;ratioP1;P2;durP2;ratioP2
50569;SDS011;36525;49.398;7.614;2023-09-18T00:01:05;12.32;;;3.25;;
50569;SDS011;36525;49.398;7.614;2023-09-18T00:03:33;9.55;;;4.45;;
50569;SDS011;36525;49.398;7.614;2023-09-18T00:06:00;8.88;;;4.70;;
50569;SDS011;36525;49.398;7.614;2023-09-18T00:08:27;8.32;;;4.10;;
50569;SDS011;36525;49.398;7.614;2023-09-18T00:10:54;11.43;;;5.40;;
50569;SDS011;36525;49.398;7.614;2023-09-18T00:13:22;10.65;;;3.70;;
50569;SDS011;36525;49.398;7.614;2023-09-18T00:15:50;12.05;;;3.90;;
50569;SDS011;36525;49.398;7.614;2023-09-18T00:18:21;14.80;;;4.32;;
50569;SDS011;36525;49.398;7.614;2023-09-18T00:20:49;8.30;;;3.63;;
50569;SDS011;36525;49.398;7.614;2023-09-18T00:23:18;6.82;;;2.83;;
50569;SDS011;36525;49.398;7.614;2023-09-18T00:25:45;8.82;;;3.53;;
50569;SDS011;36525;49.398;7.614;2023-09-18T00:28:13;6.63;;;3.42;;
50569;SDS011;36525;49.398;7.614;2023-09-18T00:30:46;8.57;;;4.03;;
50569;SDS011;36525;49.398;7.614;2023-09-18T00:33:16;7.22;;;3.58;;
50569;SDS011;36525;49.398;7.614;2023-09-18T00:35:50;8.82;;;3.15;;
50569;SDS011;36525;49.398;7.614;2023-09-18T00:38:18;7.55;;;2.72;;
50569;SDS011;36525;49.398;7.614;2023-09-18T00:40:46;7.32;;;3.47;;
50569;SDS011;36525;49.398;7.614;2023-09-18T00:43:13;7.10;;;2.10;;
50569;SDS011;36525;49.398;7.614;2023-09-18T00:45:47;7.53;;;2.65;;
50569;SDS011;36525;49.398;7.614;2023-09-18T00:48:15;6.18;;;2.88;;
50569;SDS011;36525;49.398;7.614;2023-09-18T00:50:43;6.40;;;1.88;;
50569;SDS011;36525;49.398;7.614;2023-09-18T00:53:19;13.07;;;1.70;;
50569;SDS011;36525;49.398;7.614;2023-09-18T00:55:49;9.00;;;1.92;;
50569;SDS011;36525;49.398;7.614;2023-09-18T00:58:19;7.60;;;2.17;;
50569;SDS011;36525;49.398;7.614;2023-09-18T01:00:47;6.57;;;1.80;;
50569;SDS011;36525;49.398;7.614;2023-09-18T01:03:17;12.05;;;1.95;;
50569;SDS011;36525;49.398;7.614;2023-09-18T01:05:46;9.00;;;2.17;;
50569;SDS011;36525;49.398;7.614;2023-09-18T01:08:13;9.00;;;2.10;;
50569;SDS011;36525;49.398;7.614;2023-09-18T01:10:48;9.43;;;2.40;;
50569;SDS011;36525;49.398;7.614;2023-09-18T01:13:36;7.95;;;1.92;;
50569;SDS011;36525;49.398;7.614;2023-09-18T01:16:20;9.40;;;2.40;;
50569;SDS011;36525;49.398;7.614;2023-09-18T01:19:03;8.02;;;2.17;;
50569;SDS011;36525;49.398;7.614;2023-09-18T01:21:30;9.15;;;2.20;;
50569;SDS011;36525;49.398;7.614;2023-09-18T01:23:57;8.45;;;2.22;;
50569;SDS011;36525;49.398;7.614;2023-09-18T01:26:25;10.43;;;2.00;;
50569;SDS011;36525;49.398;7.614;2023-09-18T01:28:52;11.00;;;2.92;;
50569;SDS011;36525;49.398;7.614;2023-09-18T01:31:20;19.88;;;2.90;;
50569;SDS011;36525;49.398;7.614;2023-09-18T01:33:48;7.97;;;2.45;;
50569;SDS011;36525;49.398;7.614;2023-09-18T01:36:16;12.95;;;2.47;;
50569;SDS011;36525;49.398;7.614;2023-09-18T01:38:44;8.68;;;2.88;;
50569;SDS011;36525;49.398;7.614;2023-09-18T01:41:13;16.05;;;3.03;;
50569;SDS011;36525;49.398;7.614;2023-09-18T01:43:40;14.65;;;3.40;;
50569;SDS011;36525;49.398;7.614;2023-09-18T01:46:07;14.30;;;3.10;;
50569;SDS011;36525;49.398;7.614;2023-09-18T01:48:34;23.80;;;4.25;;
50569;SDS011;36525;49.398;7.614;2023-09-18T01:51:02;22.25;;;3.75;;
50569;SDS011;36525;49.398;7.614;2023-09-18T01:53:29;17.27;;;3.92;;
50569;SDS011;36525;49.398;7.614;2023-09-18T01:55:57;24.50;;;4.65;;
50569;SDS011;36525;49.398;7.614;2023-09-18T01:58:24;14.02;;;3.90;;
50569;SDS011;36525;49.398;7.614;2023-09-18T02:00:52;20.52;;;4.13;;
50569;SDS011;36525;49.398;7.614;2023-09-18T02:03:20;20.73;;;4.22;;
50569;SDS011;36525;49.398;7.614;2023-09-18T02:06:07;18.30;;;4.05;;
50569;SDS011;36525;49.398;7.614;2023-09-18T02:08:37;20.75;;;4.03;;
50569;SDS011;36525;49.398;7.614;2023-09-18T02:11:04;19.77;;;3.75;;
50569;SDS011;36525;49.398;7.614;2023-09-18T02:13:31;22.35;;;4.50;;
50569;SDS011;36525;49.398;7.614;2023-09-18T02:15:58;18.20;;;4.20;;
50569;SDS011;36525;49.398;7.614;2023-09-18T02:18:26;23.55;;;4.50;;
50569;SDS011;36525;49.398;7.614;2023-09-18T02:20:53;18.88;;;4.78;;
50569;SDS011;36525;49.398;7.614;2023-09-18T02:23:20;25.15;;;4.72;;
50569;SDS011;36525;49.398;7.614;2023-09-18T02:25:55;25.00;;;5.30;;
50569;SDS011;36525;49.398;7.614;2023-09-18T02:28:23;19.98;;;4.15;;
50569;SDS011;36525;49.398;7.614;2023-09-18T02:30:51;18.95;;;5.50;;
50569;SDS011;36525;49.398;7.614;2023-09-18T02:33:18;20.80;;;4.55;;
50569;SDS011;36525;49.398;7.614;2023-09-18T02:35:45;20.92;;;4.70;;
50569;SDS011;36525;49.398;7.614;2023-09-18T02:38:12;24.00;;;5.53;;
50569;SDS011;36525;49.398;7.614;2023-09-18T02:40:39;29.17;;;5.10;;
50569;SDS011;36525;49.398;7.614;2023-09-18T02:43:07;22.08;;;4.72;;
50569;SDS011;36525;49.398;7.614;2023-09-18T02:45:34;22.65;;;4.88;;
50569;SDS011;36525;49.398;7.614;2023-09-18T02:48:04;20.17;;;4.07;;
50569;SDS011;36525;49.398;7.614;2023-09-18T02:50:31;22.02;;;4.47;;
50569;SDS011;36525;49.398;7.614;2023-09-18T02:53:02;28.92;;;5.38;;
50569;SDS011;36525;49.398;7.614;2023-09-18T02:55:29;18.27;;;4.10;;
50569;SDS011;36525;49.398;7.614;2023-09-18T02:57:57;23.27;;;5.22;;
50569;SDS011;36525;49.398;7.614;2023-09-18T03:00:24;22.48;;;5.35;;
50569;SDS011;36525;49.398;7.614;2023-09-18T03:03:08;23.40;;;4.30;;
50569;SDS011;36525;49.398;7.614;2023-09-18T03:05:37;25.00;;;4.75;;
50569;SDS011;36525;49.398;7.614;2023-09-18T03:08:06;19.70;;;4.88;;
50569;SDS011;36525;49.398;7.614;2023-09-18T03:10:37;21.65;;;4.35;;
50569;SDS011;36525;49.398;7.614;2023-09-18T03:13:07;28.60;;;5.10;;
50569;SDS011;36525;49.398;7.614;2023-09-18T03:15:35;23.88;;;4.88;;
50569;SDS011;36525;49.398;7.614;2023-09-18T03:18:03;24.95;;;4.75;;
50569;SDS011;36525;49.398;7.614;2023-09-18T03:20:32;20.60;;;4.80;;
50569;SDS011;36525;49.398;7.614;2023-09-18T03:23:00;27.52;;;5.18;;
50569;SDS011;36525;49.398;7.614;2023-09-18T03:25:28;17.42;;;4.10;;
50569;SDS011;36525;49.398;7.614;2023-09-18T03:28:16;15.15;;;4.55;;
50569;SDS011;36525;49.398;7.614;2023-09-18T03:30:43;17.83;;;4.45;;
50569;SDS011;36525;49.398;7.614;2023-09-18T03:33:10;20.45;;;4.85;;
50569;SDS011;36525;49.398;7.614;2023-09-18T03:35:55;24.38;;;4.60;;
50569;SDS011;36525;49.398;7.614;2023-09-18T03:38:25;21.63;;;5.07;;
50569;SDS011;36525;49.398;7.614;2023-09-18T03:40:52;19.17;;;4.55;;
50569;SDS011;36525;49.398;7.614;2023-09-18T03:43:20;20.30;;;4.35;;
50569;SDS011;36525;49.398;7.614;2023-09-18T03:45:48;18.90;;;4.10;;
50569;SDS011;36525;49.398;7.614;2023-09-18T03:48:15;22.40;;;4.90;;
50569;SDS011;36525;49.398;7.614;2023-09-18T03:50:43;21.45;;;4.60;;
50569;SDS011;36525;49.398;7.614;2023-09-18T03:53:10;21.15;;;4.28;;
50569;SDS011;36525;49.398;7.614;2023-09-18T03:55:37;20.17;;;4.28;;
50569;SDS011;36525;49.398;7.614;2023-09-18T03:58:05;16.90;;;4.72;;
50569;SDS011;36525;49.398;7.614;2023-09-18T04:00:32;22.83;;;4.45;;
50569;SDS011;36525;49.398;7.614;2023-09-18T04:02:59;17.95;;;4.35;;
50569;SDS011;36525;49.398;7.614;2023-09-18T04:05:27;19.83;;;4.25;;
50569;SDS011;36525;49.398;7.614;2023-09-18T04:07:54;15.35;;;2.75;;
50569;SDS011;36525;49.398;7.614;2023-09-18T04:10:25;19.65;;;4.85;;
50569;SDS011;36525;49.398;7.614;2023-09-18T04:12:53;20.25;;;5.25;;
50569;SDS011;36525;49.398;7.614;2023-09-18T04:15:20;20.08;;;4.15;;
50569;SDS011;36525;49.398;7.614;2023-09-18T04:17:49;20.67;;;3.25;;
50569;SDS011;36525;49.398;7.614;2023-09-18T04:20:16;19.83;;;4.68;;
50569;SDS011;36525;49.398;7.614;2023-09-18T04:22:45;19.55;;;4.63;;
50569;SDS011;36525;49.398;7.614;2023-09-18T04:25:17;17.23;;;4.05;;
50569;SDS011;36525;49.398;7.614;2023-09-18T04:27:46;18.42;;;4.00;;
50569;SDS011;36525;49.398;7.614;2023-09-18T04:30:17;20.02;;;5.00;;
50569;SDS011;36525;49.398;7.614;2023-09-18T04:32:46;19.40;;;5.22;;
50569;SDS011;36525;49.398;7.614;2023-09-18T04:35:14;16.70;;;4.32;;
50569;SDS011;36525;49.398;7.614;2023-09-18T04:37:41;18.13;;;4.57;;
50569;SDS011;36525;49.398;7.614;2023-09-18T04:40:08;18.83;;;2.70;;
50569;SDS011;36525;49.398;7.614;2023-09-18T04:42:37;25.08;;;4.90;;
50569;SDS011;36525;49.398;7.614;2023-09-18T04:45:06;15.20;;;3.40;;
50569;SDS011;36525;49.398;7.614;2023-09-18T04:47:34;17.98;;;4.13;;
50569;SDS011;36525;49.398;7.614;2023-09-18T04:50:02;16.90;;;4.53;;
50569;SDS011;36525;49.398;7.614;2023-09-18T04:52:37;17.00;;;3.83;;
50569;SDS011;36525;49.398;7.614;2023-09-18T04:55:04;15.57;;;3.47;;
50569;SDS011;36525;49.398;7.614;2023-09-18T04:57:35;13.70;;;2.35;;
50569;SDS011;36525;49.398;7.614;2023-09-18T05:00:03;17.95;;;4.18;;
50569;SDS011;36525;49.398;7.614;2023-09-18T05:02:43;15.52;;;2.72;;
50569;SDS011;36525;49.398;7.614;2023-09-18T05:05:11;11.13;;;1.95;;
50569;SDS011;36525;49.398;7.614;2023-09-18T05:07:40;21.95;;;4.57;;
50569;SDS011;36525;49.398;7.614;2023-09-18T05:10:09;17.48;;;4.13;;
50569;SDS011;36525;49.398;7.614;2023-09-18T05:12:39;17.90;;;4.75;;
50569;SDS011;36525;49.398;7.614;2023-09-18T05:15:07;16.70;;;4.15;;
50569;SDS011;36525;49.398;7.614;2023-09-18T05:17:43;17.15;;;4.28;;
50569;SDS011;36525;49.398;7.614;2023-09-18T05:20:19;15.68;;;4.20;;
50569;SDS011;36525;49.398;7.614;2023-09-18T05:22:46;17.63;;;2.95;;
50569;SDS011;36525;49.398;7.614;2023-09-18T05:25:13;14.35;;;3.50;;
50569;SDS011;36525;49.398;7.614;2023-09-18T05:27:44;13.48;;;3.00;;
50569;SDS011;36525;49.398;7.614;2023-09-18T05:30:15;14.20;;;3.38;;
50569;SDS011;36525;49.398;7.614;2023-09-18T05:32:48;14.98;;;2.88;;
50569;SDS011;36525;49.398;7.614;2023-09-18T05:35:16;9.00;;;2.20;;
50569;SDS011;36525;49.398;7.614;2023-09-18T05:37:43;13.57;;;3.15;;
50569;SDS011;36525;49.398;7.614;2023-09-18T05:40:11;16.58;;;3.45;;
50569;SDS011;36525;49.398;7.614;2023-09-18T05:42:40;15.07;;;3.28;;
50569;SDS011;36525;49.398;7.614;2023-09-18T05:45:12;14.02;;;3.25;;
50569;SDS011;36525;49.398;7.614;2023-09-18T05:47:41;16.40;;;2.85;;
50569;SDS011;36525;49.398;7.614;2023-09-18T05:50:10;16.88;;;3.60;;
50569;SDS011;36525;49.398;7.614;2023-09-18T05:52:43;22.55;;;4.43;;
50569;SDS011;36525;49.398;7.614;2023-09-18T05:55:14;14.30;;;3.30;;
50569;SDS011;36525;49.398;7.614;2023-09-18T05:57:41;16.50;;;3.45;;
50569;SDS011;36525;49.398;7.614;2023-09-18T06:00:09;21.10;;;5.13;;
50569;SDS011;36525;49.398;7.614;2023-09-18T06:02:40;14.48;;;4.50;;
50569;SDS011;36525;49.398;7.614;2023-09-18T06:05:07;15.35;;;3.42;;
50569;SDS011;36525;49.398;7.614;2023-09-18T06:07:38;14.88;;;2.47;;
50569;SDS011;36525;49.398;7.614;2023-09-18T06:10:06;16.23;;;3.33;;
50569;SDS011;36525;49.398;7.614;2023-09-18T06:12:33;21.45;;;3.92;;
50569;SDS011;36525;49.398;7.614;2023-09-18T06:15:00;15.57;;;3.67;;
50569;SDS011;36525;49.398;7.614;2023-09-18T06:17:27;16.15;;;3.63;;
50569;SDS011;36525;49.398;7.614;2023-09-18T06:19:55;13.95;;;4.22;;
50569;SDS011;36525;49.398;7.614;2023-09-18T06:22:22;18.10;;;4.93;;
50569;SDS011;36525;49.398;7.614;2023-09-18T06:24:49;17.13;;;4.20;;
50569;SDS011;36525;49.398;7.614;2023-09-18T06:27:16;9.63;;;2.50;;
50569;SDS011;36525;49.398;7.614;2023-09-18T06:29:45;17.65;;;3.88;;
50569;SDS011;36525;49.398;7.614;2023-09-18T06:32:12;15.70;;;3.55;;
50569;SDS011;36525;49.398;7.614;2023-09-18T06:34:39;19.27;;;4.10;;
50569;SDS011;36525;49.398;7.614;2023-09-18T06:37:10;17.58;;;3.83;;
50569;SDS011;36525;49.398;7.614;2023-09-18T06:39:39;20.30;;;3.95;;
50569;SDS011;36525;49.398;7.614;2023-09-18T06:42:09;14.00;;;3.15;;
50569;SDS011;36525;49.398;7.614;2023-09-18T06:44:37;16.23;;;2.97;;
50569;SDS011;36525;49.398;7.614;2023-09-18T06:47:04;12.52;;;3.80;;
50569;SDS011;36525;49.398;7.614;2023-09-18T06:49:32;18.10;;;3.78;;
50569;SDS011;36525;49.398;7.614;2023-09-18T06:51:59;19.77;;;3.40;;
50569;SDS011;36525;49.398;7.614;2023-09-18T06:54:26;14.07;;;3.40;;
50569;SDS011;36525;49.398;7.614;2023-09-18T06:56:53;12.38;;;3.35;;
50569;SDS011;36525;49.398;7.614;2023-09-18T06:59:20;15.30;;;2.60;;
50569;SDS011;36525;49.398;7.614;2023-09-18T07:01:47;18.25;;;3.58;;
50569;SDS011;36525;49.398;7.614;2023-09-18T07:04:14;17.08;;;3.17;;
50569;SDS011;36525;49.398;7.614;2023-09-18T07:06:42;20.08;;;3.22;;
50569;SDS011;36525;49.398;7.614;2023-09-18T07:09:09;11.75;;;2.72;;
50569;SDS011;36525;49.398;7.614;2023-09-18T07:11:38;12.45;;;2.63;;
50569;SDS011;36525;49.398;7.614;2023-09-18T07:14:05;14.27;;;2.85;;
50569;SDS011;36525;49.398;7.614;2023-09-18T07:16:34;10.82;;;2.55;;
50569;SDS011;36525;49.398;7.614;2023-09-18T07:19:01;12.10;;;2.42;;
50569;SDS011;36525;49.398;7.614;2023-09-18T07:21:31;9.18;;;2.10;;
50569;SDS011;36525;49.398;7.614;2023-09-18T07:23:59;15.02;;;2.67;;
50569;SDS011;36525;49.398;7.614;2023-09-18T07:26:27;11.23;;;2.80;;
50569;SDS011;36525;49.398;7.614;2023-09-18T07:28:54;10.50;;;3.25;;
50569;SDS011;36525;49.398;7.614;2023-09-18T07:31:21;14.57;;;3.00;;
50569;SDS011;36525;49.398;7.614;2023-09-18T07:33:49;8.85;;;2.45;;
50569;SDS011;36525;49.398;7.614;2023-09-18T07:36:16;12.40;;;2.80;;
50569;SDS011;36525;49.398;7.614;2023-09-18T07:38:43;9.38;;;2.53;;
50569;SDS011;36525;49.398;7.614;2023-09-18T07:41:13;10.48;;;2.40;;
50569;SDS011;36525;49.398;7.614;2023-09-18T07:43:42;13.40;;;2.38;;
50569;SDS011;36525;49.398;7.614;2023-09-18T07:46:09;9.68;;;1.67;;
50569;SDS011;36525;49.398;7.614;2023-09-18T07:48:36;12.00;;;2.15;;
50569;SDS011;36525;49.398;7.614;2023-09-18T07:51:04;11.23;;;1.45;;
50569;SDS011;36525;49.398;7.614;2023-09-18T07:53:32;7.95;;;1.30;;
50569;SDS011;36525;49.398;7.614;2023-09-18T07:55:59;8.48;;;1.63;;
50569;SDS011;36525;49.398;7.614;2023-09-18T07:58:32;3.65;;;0.95;;
50569;SDS011;36525;49.398;7.614;2023-09-18T08:00:59;5.22;;;0.93;;
50569;SDS011;36525;49.398;7.614;2023-09-18T08:03:27;4.55;;;0.80;;
50569;SDS011;36525;49.398;7.614;2023-09-18T08:05:55;4.25;;;1.23;;
50569;SDS011;36525;49.398;7.614;2023-09-18T08:08:23;8.98;;;1.88;;
50569;SDS011;36525;49.398;7.614;2023-09-18T08:10:51;6.90;;;1.15;;
50569;SDS011;36525;49.398;7.614;2023-09-18T08:13:19;4.32;;;0.85;;
50569;SDS011;36525;49.398;7.614;2023-09-18T08:15:46;3.83;;;0.95;;
50569;SDS011;36525;49.398;7.614;2023-09-18T08:18:14;8.27;;;1.10;;
50569;SDS011;36525;49.398;7.614;2023-09-18T08:20:44;5.13;;;1.00;;
50569;SDS011;36525;49.398;7.614;2023-09-18T08:23:11;5.63;;;1.23;;
50569;SDS011;36525;49.398;7.614;2023-09-18T08:25:40;6.57;;;1.02;;
50569;SDS011;36525;49.398;7.614;2023-09-18T08:28:07;6.88;;;1.20;;
50569;SDS011;36525;49.398;7.614;2023-09-18T08:30:35;3.20;;;1.02;;
50569;SDS011;36525;49.398;7.614;2023-09-18T08:33:05;5.15;;;1.27;;
50569;SDS011;36525;49.398;7.614;2023-09-18T08:35:33;8.35;;;1.08;;
50569;SDS011;36525;49.398;7.614;2023-09-18T08:38:00;4.43;;;0.90;;
50569;SDS011;36525;49.398;7.614;2023-09-18T08:40:27;3.50;;;0.90;;
50569;SDS011;36525;49.398;7.614;2023-09-18T08:42:55;5.13;;;1.05;;
50569;SDS011;36525;49.398;7.614;2023-09-18T08:45:40;6.88;;;1.33;;
50569;SDS011;36525;49.398;7.614;2023-09-18T08:48:17;9.30;;;1.25;;
50569;SDS011;36525;49.398;7.614;2023-09-18T08:50:45;7.15;;;1.40;;
50569;SDS011;36525;49.398;7.614;2023-09-18T08:53:14;7.82;;;1.25;;
50569;SDS011;36525;49.398;7.614;2023-09-18T08:55:41;11.02;;;1.60;;
50569;SDS011;36525;49.398;7.614;2023-09-18T08:58:08;5.03;;;1.00;;
50569;SDS011;36525;49.398;7.614;2023-09-18T09:00:36;4.28;;;1.15;;
50569;SDS011;36525;49.398;7.614;2023-09-18T09:03:05;6.65;;;1.23;;
50569;SDS011;36525;49.398;7.614;2023-09-18T09:05:33;4.10;;;1.02;;
50569;SDS011;36525;49.398;7.614;2023-09-18T09:08:00;4.88;;;1.27;;
50569;SDS011;36525;49.398;7.614;2023-09-18T09:10:28;6.28;;;1.42;;
50569;SDS011;36525;49.398;7.614;2023-09-18T09:12:57;7.60;;;1.20;;
50569;SDS011;36525;49.398;7.614;2023-09-18T09:15:29;4.72;;;1.05;;
50569;SDS011;36525;49.398;7.614;2023-09-18T09:18:03;5.57;;;1.13;;
50569;SDS011;36525;49.398;7.614;2023-09-18T09:23:03;5.10;;;1.17;;
50569;SDS011;36525;49.398;7.614;2023-09-18T09:25:33;6.93;;;1.27;;
50569;SDS011;36525;49.398;7.614;2023-09-18T09:28:02;6.70;;;0.85;;
50569;SDS011;36525;49.398;7.614;2023-09-18T09:30:32;8.48;;;1.20;;
50569;SDS011;36525;49.398;7.614;2023-09-18T09:33:03;6.15;;;1.20;;
50569;SDS011;36525;49.398;7.614;2023-09-18T09:35:32;3.97;;;1.10;;
50569;SDS011;36525;49.398;7.614;2023-09-18T09:38:01;5.03;;;1.20;;
50569;SDS011;36525;49.398;7.614;2023-09-18T09:40:35;8.93;;;1.45;;
50569;SDS011;36525;49.398;7.614;2023-09-18T09:43:08;9.48;;;1.25;;
50569;SDS011;36525;49.398;7.614;2023-09-18T09:45:37;3.72;;;1.15;;
50569;SDS011;36525;49.398;7.614;2023-09-18T09:48:06;6.20;;;1.40;;
50569;SDS011;36525;49.398;7.614;2023-09-18T09:50:43;7.07;;;1.15;;
50569;SDS011;36525;49.398;7.614;2023-09-18T09:53:15;3.28;;;1.17;;
50569;SDS011;36525;49.398;7.614;2023-09-18T09:55:43;11.05;;;1.45;;
50569;SDS011;36525;49.398;7.614;2023-09-18T09:58:11;5.85;;;0.90;;
50569;SDS011;36525;49.398;7.614;2023-09-18T10:00:45;6.05;;;1.10;;
50569;SDS011;36525;49.398;7.614;2023-09-18T10:03:17;4.28;;;1.00;;
50569;SDS011;36525;49.398;7.614;2023-09-18T10:05:48;8.98;;;1.63;;
50569;SDS011;36525;49.398;7.614;2023-09-18T10:08:24;3.88;;;1.23;;
50569;SDS011;36525;49.398;7.614;2023-09-18T10:10:54;5.82;;;1.10;;
50569;SDS011;36525;49.398;7.614;2023-09-18T10:16:16;6.65;;;1.17;;
50569;SDS011;36525;49.398;7.614;2023-09-18T10:22:03;5.30;;;1.05;;
50569;SDS011;36525;49.398;7.614;2023-09-18T10:24:46;5.60;;;1.00;;
50569;SDS011;36525;49.398;7.614;2023-09-18T10:27:17;9.25;;;1.48;;
50569;SDS011;36525;49.398;7.614;2023-09-18T10:29:48;10.27;;;1.50;;
50569;SDS011;36525;49.398;7.614;2023-09-18T10:32:18;6.43;;;1.10;;
50569;SDS011;36525;49.398;7.614;2023-09-18T10:34:49;6.32;;;1.10;;
50569;SDS011;36525;49.398;7.614;2023-09-18T10:37:17;5.00;;;1.20;;
50569;SDS011;36525;49.398;7.614;2023-09-18T10:39:45;6.22;;;1.33;;
50569;SDS011;36525;49.398;7.614;2023-09-18T10:42:15;6.10;;;1.30;;
50569;SDS011;36525;49.398;7.614;2023-09-18T10:44:45;7.20;;;1.27;;
50569;SDS011;36525;49.398;7.614;2023-09-18T10:47:15;5.20;;;1.30;;
50569;SDS011;36525;49.398;7.614;2023-09-18T10:49:43;4.63;;;1.25;;
50569;SDS011;36525;49.398;7.614;2023-09-18T10:52:13;5.80;;;1.00;;
50569;SDS011;36525;49.398;7.614;2023-09-18T10:54:40;4.75;;;1.30;;
50569;SDS011;36525;49.398;7.614;2023-09-18T10:57:07;5.20;;;1.13;;
50569;SDS011;36525;49.398;7.614;2023-09-18T10:59:42;7.68;;;1.30;;
50569;SDS011;36525;49.398;7.614;2023-09-18T11:02:14;6.68;;;1.55;;
50569;SDS011;36525;49.398;7.614;2023-09-18T11:04:44;6.32;;;1.48;;
50569;SDS011;36525;49.398;7.614;2023-09-18T11:07:21;6.60;;;1.20;;
50569;SDS011;36525;49.398;7.614;2023-09-18T11:09:51;7.57;;;1.35;;
50569;SDS011;36525;49.398;7.614;2023-09-18T11:12:18;5.47;;;1.20;;
50569;SDS011;36525;49.398;7.614;2023-09-18T11:14:49;6.72;;;1.38;;
50569;SDS011;36525;49.398;7.614;2023-09-18T11:17:37;6.60;;;1.70;;
50569;SDS011;36525;49.398;7.614;2023-09-18T11:22:48;7.25;;;1.35;;
50569;SDS011;36525;49.398;7.614;2023-09-18T11:28:15;5.13;;;1.30;;
50569;SDS011;36525;49.398;7.614;2023-09-18T11:33:36;7.20;;;1.48;;
50569;SDS011;36525;49.398;7.614;2023-09-18T11:36:08;9.02;;;1.67;;
50569;SDS011;36525;49.398;7.614;2023-09-18T11:38:58;7.65;;;1.60;;
50569;SDS011;36525;49.398;7.614;2023-09-18T11:41:31;11.52;;;1.58;;
50569;SDS011;36525;49.398;7.614;2023-09-18T11:46:47;6.55;;;1.50;;
50569;SDS011;36525;49.398;7.614;2023-09-18T11:49:19;5.25;;;1.40;;
50569;SDS011;36525;49.398;7.614;2023-09-18T11:51:53;4.18;;;1.08;;
50569;SDS011;36525;49.398;7.614;2023-09-18T11:54:21;5.53;;;1.10;;
50569;SDS011;36525;49.398;7.614;2023-09-18T11:56:48;4.43;;;1.38;;
50569;SDS011;36525;49.398;7.614;2023-09-18T11:59:16;6.30;;;1.40;;
50569;SDS011;36525;49.398;7.614;2023-09-18T12:01:52;4.95;;;1.88;;
50569;SDS011;36525;49.398;7.614;2023-09-18T12:04:27;6.03;;;1.73;;
50569;SDS011;36525;49.398;7.614;2023-09-18T12:06:55;8.88;;;4.45;;
50569;SDS011;36525;49.398;7.614;2023-09-18T12:09:22;8.18;;;2.17;;
50569;SDS011;36525;49.398;7.614;2023-09-18T12:11:51;4.72;;;1.45;;
50569;SDS011;36525;49.398;7.614;2023-09-18T12:14:20;3.78;;;1.17;;
50569;SDS011;36525;49.398;7.614;2023-09-18T12:16:49;6.03;;;1.63;;
50569;SDS011;36525;49.398;7.614;2023-09-18T12:19:17;8.52;;;1.77;;
50569;SDS011;36525;49.398;7.614;2023-09-18T12:21:48;6.95;;;1.65;;
50569;SDS011;36525;49.398;7.614;2023-09-18T12:24:22;4.35;;;1.35;;
50569;SDS011;36525;49.398;7.614;2023-09-18T12:26:52;4.82;;;1.40;;
50569;SDS011;36525;49.398;7.614;2023-09-18T12:29:21;5.32;;;1.23;;
50569;SDS011;36525;49.398;7.614;2023-09-18T12:31:49;9.23;;;1.85;;
50569;SDS011;36525;49.398;7.614;2023-09-18T12:34:19;3.47;;;1.13;;
50569;SDS011;36525;49.398;7.614;2023-09-18T12:36:48;6.45;;;1.42;;
50569;SDS011;36525;49.398;7.614;2023-09-18T12:39:17;4.47;;;1.50;;
50569;SDS011;36525;49.398;7.614;2023-09-18T12:41:47;4.22;;;1.23;;
50569;SDS011;36525;49.398;7.614;2023-09-18T12:44:15;7.28;;;1.70;;
50569;SDS011;36525;49.398;7.614;2023-09-18T12:46:43;5.13;;;1.25;;
50569;SDS011;36525;49.398;7.614;2023-09-18T12:49:21;6.30;;;1.42;;
50569;SDS011;36525;49.398;7.614;2023-09-18T12:51:57;6.72;;;1.52;;
50569;SDS011;36525;49.398;7.614;2023-09-18T12:54:38;4.82;;;1.30;;
50569;SDS011;36525;49.398;7.614;2023-09-18T12:57:20;5.80;;;1.33;;
50569;SDS011;36525;49.398;7.614;2023-09-18T12:59:48;4.50;;;1.35;;
50569;SDS011;36525;49.398;7.614;2023-09-18T13:02:20;4.07;;;1.10;;
50569;SDS011;36525;49.398;7.614;2023-09-18T13:04:55;8.35;;;1.38;;
50569;SDS011;36525;49.398;7.614;2023-09-18T13:07:23;5.13;;;1.00;;
50569;SDS011;36525;49.398;7.614;2023-09-18T13:10:00;4.20;;;1.00;;
50569;SDS011;36525;49.398;7.614;2023-09-18T13:12:41;4.65;;;1.00;;
50569;SDS011;36525;49.398;7.614;2023-09-18T13:15:10;3.58;;;1.02;;
50569;SDS011;36525;49.398;7.614;2023-09-18T13:17:43;4.63;;;1.00;;
50569;SDS011;36525;49.398;7.614;2023-09-18T13:20:16;5.63;;;1.17;;
50569;SDS011;36525;49.398;7.614;2023-09-18T13:22:50;4.90;;;1.10;;
50569;SDS011;36525;49.398;7.614;2023-09-18T13:25:22;6.13;;;1.05;;
50569;SDS011;36525;49.398;7.614;2023-09-18T13:27:52;4.93;;;0.90;;
50569;SDS011;36525;49.398;7.614;2023-09-18T13:30:21;4.97;;;1.13;;
50569;SDS011;36525;49.398;7.614;2023-09-18T13:32:49;6.20;;;1.23;;
50569;SDS011;36525;49.398;7.614;2023-09-18T13:35:17;4.65;;;1.08;;
50569;SDS011;36525;49.398;7.614;2023-09-18T13:37:45;4.45;;;1.00;;
50569;SDS011;36525;49.398;7.614;2023-09-18T13:40:12;2.80;;;1.30;;
50569;SDS011;36525;49.398;7.614;2023-09-18T13:42:39;3.92;;;1.00;;
50569;SDS011;36525;49.398;7.614;2023-09-18T13:45:06;3.10;;;0.70;;
50569;SDS011;36525;49.398;7.614;2023-09-18T13:47:35;4.47;;;1.38;;
50569;SDS011;36525;49.398;7.614;2023-09-18T13:50:03;5.60;;;1.15;;
50569;SDS011;36525;49.398;7.614;2023-09-18T13:52:32;6.38;;;1.10;;
50569;SDS011;36525;49.398;7.614;2023-09-18T13:55:00;4.88;;;1.00;;
50569;SDS011;36525;49.398;7.614;2023-09-18T13:57:32;5.10;;;1.05;;
50569;SDS011;36525;49.398;7.614;2023-09-18T14:00:00;5.25;;;1.00;;
50569;SDS011;36525;49.398;7.614;2023-09-18T14:02:31;6.65;;;0.90;;
50569;SDS011;36525;49.398;7.614;2023-09-18T14:04:59;3.65;;;1.02;;
50569;SDS011;36525;49.398;7.614;2023-09-18T14:07:26;4.63;;;1.10;;
50569;SDS011;36525;49.398;7.614;2023-09-18T14:09:53;6.32;;;1.10;;
50569;SDS011;36525;49.398;7.614;2023-09-18T14:12:21;3.90;;;1.05;;
50569;SDS011;36525;49.398;7.614;2023-09-18T14:14:48;5.82;;;1.25;;
50569;SDS011;36525;49.398;7.614;2023-09-18T14:17:16;4.38;;;1.20;;
50569;SDS011;36525;49.398;7.614;2023-09-18T14:19:48;4.53;;;0.88;;
50569;SDS011;36525;49.398;7.614;2023-09-18T14:22:15;6.85;;;1.13;;
50569;SDS011;36525;49.398;7.614;2023-09-18T14:24:42;5.05;;;1.27;;
50569;SDS011;36525;49.398;7.614;2023-09-18T14:27:09;4.40;;;1.15;;
50569;SDS011;36525;49.398;7.614;2023-09-18T14:29:38;6.47;;;1.67;;
50569;SDS011;36525;49.398;7.614;2023-09-18T14:32:05;5.50;;;1.08;;
50569;SDS011;36525;49.398;7.614;2023-09-18T14:34:34;6.55;;;1.20;;
50569;SDS011;36525;49.398;7.614;2023-09-18T14:37:02;3.88;;;1.05;;
50569;SDS011;36525;49.398;7.614;2023-09-18T14:39:32;20.27;;;4.93;;
50569;SDS011;36525;49.398;7.614;2023-09-18T14:41:59;40.95;;;6.53;;
50569;SDS011;36525;49.398;7.614;2023-09-18T14:44:27;5.70;;;1.42;;
50569;SDS011;36525;49.398;7.614;2023-09-18T14:46:56;6.25;;;1.30;;
50569;SDS011;36525;49.398;7.614;2023-09-18T14:49:24;7.00;;;1.52;;
50569;SDS011;36525;49.398;7.614;2023-09-18T14:51:54;18.42;;;2.10;;
50569;SDS011;36525;49.398;7.614;2023-09-18T14:54:21;6.22;;;1.15;;
50569;SDS011;36525;49.398;7.614;2023-09-18T14:56:48;4.22;;;0.90;;
50569;SDS011;36525;49.398;7.614;2023-09-18T14:59:15;4.18;;;1.20;;
50569;SDS011;36525;49.398;7.614;2023-09-18T15:01:57;2.63;;;0.80;;
50569;SDS011;36525;49.398;7.614;2023-09-18T15:04:23;5.63;;;1.55;;
50569;SDS011;36525;49.398;7.614;2023-09-18T15:06:51;5.55;;;1.30;;
50569;SDS011;36525;49.398;7.614;2023-09-18T15:09:19;4.60;;;0.98;;
50569;SDS011;36525;49.398;7.614;2023-09-18T15:11:46;4.60;;;0.90;;
50569;SDS011;36525;49.398;7.614;2023-09-18T15:14:13;3.92;;;1.30;;